sensor_id;sensor_type;location;lat;lon;timestamp;pressure;altitude;pressure_sealevel;temperature;humidity
72465;BME280;60471;52.150;4.508;2023-07-13T00:00:49;101085.06;;;19.27;66.37
72465;BME280;60471;52.150;4.508;2023-07-13T00:03:16;101071.53;;;19.40;66.00
72465;BME280;60471;52.150;4.508;2023-07-13T00:05:43;101068.63;;;19.32;65.97
72465;BME280;60471;52.150;4.508;2023-07-13T00:08:09;101073.00;;;19.44;65.38
72465;BME280;60471;52.150;4.508;2023-07-13T00:10:41;101064.63;;;19.37;65.23
72465;BME280;60471;52.150;4.508;2023-07-13T00:13:08;101067.91;;;19.41;65.37
72465;BME280;60471;52.150;4.508;2023-07-13T00:15:35;101069.69;;;19.52;65.09
72465;BME280;60471;52.150;4.508;2023-07-13T00:18:02;101091.25;;;19.61;65.00
72465;BME280;60471;52.150;4.508;2023-07-13T00:20:29;101071.31;;;19.43;65.48
72465;BME280;60471;52.150;4.508;2023-07-13T00:22:55;101066.53;;;19.69;65.07
72465;BME280;60471;52.150;4.508;2023-07-13T00:25:22;101081.16;;;19.42;66.28
72465;BME280;60471;52.150;4.508;2023-07-13T00:27:54;101079.47;;;19.30;66.63
72465;BME280;60471;52.150;4.508;2023-07-13T00:30:21;101080.69;;;19.37;66.80
72465;BME280;60471;52.150;4.508;2023-07-13T00:32:47;101080.22;;;19.32;66.84
72465;BME280;60471;52.150;4.508;2023-07-13T00:35:14;101082.94;;;19.53;66.19
72465;BME280;60471;52.150;4.508;2023-07-13T00:37:41;101086.72;;;19.73;65.47
72465;BME280;60471;52.150;4.508;2023-07-13T00:40:11;101083.59;;;19.46;65.97
72465;BME280;60471;52.150;4.508;2023-07-13T00:42:39;101091.63;;;19.34;65.68
72465;BME280;60471;52.150;4.508;2023-07-13T00:48:20;101091.50;;;19.36;64.38
72465;BME280;60471;52.150;4.508;2023-07-13T00:50:51;101078.13;;;19.36;64.03
72465;BME280;60471;52.150;4.508;2023-07-13T00:53:19;101091.03;;;19.20;63.91
72465;BME280;60471;52.150;4.508;2023-07-13T00:55:50;101080.09;;;19.34;63.64
72465;BME280;60471;52.150;4.508;2023-07-13T00:58:17;101086.03;;;19.26;63.76
72465;BME280;60471;52.150;4.508;2023-07-13T01:00:44;101077.78;;;19.18;63.32
72465;BME280;60471;52.150;4.508;2023-07-13T01:03:15;101080.31;;;19.20;62.55
72465;BME280;60471;52.150;4.508;2023-07-13T01:05:41;101082.03;;;19.21;62.86
72465;BME280;60471;52.150;4.508;2023-07-13T01:08:08;101089.78;;;19.46;61.29
72465;BME280;60471;52.150;4.508;2023-07-13T01:10:35;101079.84;;;19.37;61.29
72465;BME280;60471;52.150;4.508;2023-07-13T01:13:09;101089.78;;;19.46;60.94
72465;BME280;60471;52.150;4.508;2023-07-13T01:15:43;101086.50;;;19.54;60.40
72465;BME280;60471;52.150;4.508;2023-07-13T01:18:14;101083.72;;;19.44;60.54
72465;BME280;60471;52.150;4.508;2023-07-13T01:20:54;101085.19;;;19.26;60.70
72465;BME280;60471;52.150;4.508;2023-07-13T01:23:22;101086.78;;;19.28;60.79
72465;BME280;60471;52.150;4.508;2023-07-13T01:25:50;101093.72;;;19.08;61.10
72465;BME280;60471;52.150;4.508;2023-07-13T01:28:17;101082.66;;;19.13;61.06
72465;BME280;60471;52.150;4.508;2023-07-13T01:30:45;101091.16;;;19.07;61.47
72465;BME280;60471;52.150;4.508;2023-07-13T01:33:16;101092.97;;;19.06;61.59
72465;BME280;60471;52.150;4.508;2023-07-13T01:35:45;101115.34;;;18.94;62.18
72465;BME280;60471;52.150;4.508;2023-07-13T01:38:15;101096.38;;;18.97;62.11
72465;BME280;60471;52.150;4.508;2023-07-13T01:40:44;101103.69;;;18.95;62.41
72465;BME280;60471;52.150;4.508;2023-07-13T01:43:11;101095.19;;;18.90;62.58
72465;BME280;60471;52.150;4.508;2023-07-13T01:45:37;101097.59;;;18.93;62.36
72465;BME280;60471;52.150;4.508;2023-07-13T01:48:04;101095.53;;;18.97;61.97
72465;BME280;60471;52.150;4.508;2023-07-13T01:50:33;101117.03;;;18.84;62.69
72465;BME280;60471;52.150;4.508;2023-07-13T01:53:00;101108.03;;;18.74;62.95
72465;BME280;60471;52.150;4.508;2023-07-13T01:55:27;101101.97;;;18.83;63.15
72465;BME280;60471;52.150;4.508;2023-07-13T01:57:54;101110.38;;;18.78;63.07
72465;BME280;60471;52.150;4.508;2023-07-13T02:00:21;101105.72;;;18.69;63.94
72465;BME280;60471;52.150;4.508;2023-07-13T02:02:47;101109.69;;;18.64;64.28
72465;BME280;60471;52.150;4.508;2023-07-13T02:05:14;101111.47;;;18.52;65.04
72465;BME280;60471;52.150;4.508;2023-07-13T02:07:41;101111.47;;;18.52;65.39
72465;BME280;60471;52.150;4.508;2023-07-13T02:10:08;101111.47;;;18.52;65.88
72465;BME280;60471;52.150;4.508;2023-07-13T02:12:36;101118.19;;;18.58;65.74
72465;BME280;60471;52.150;4.508;2023-07-13T02:15:03;101122.53;;;18.47;66.43
72465;BME280;60471;52.150;4.508;2023-07-13T02:17:31;101114.72;;;18.44;66.45
72465;BME280;60471;52.150;4.508;2023-07-13T02:19:58;101123.00;;;18.41;67.06
72465;BME280;60471;52.150;4.508;2023-07-13T02:22:24;101118.53;;;18.53;66.92
72465;BME280;60471;52.150;4.508;2023-07-13T02:24:50;101119.25;;;18.55;66.81
72465;BME280;60471;52.150;4.508;2023-07-13T02:27:17;101122.84;;;18.67;66.74
72465;BME280;60471;52.150;4.508;2023-07-13T02:29:43;101119.44;;;18.65;67.16
72465;BME280;60471;52.150;4.508;2023-07-13T02:32:09;101121.16;;;18.77;66.33
72465;BME280;60471;52.150;4.508;2023-07-13T02:34:36;101112.47;;;18.62;66.86
72465;BME280;60471;52.150;4.508;2023-07-13T02:37:02;101112.34;;;18.52;67.33
72465;BME280;60471;52.150;4.508;2023-07-13T02:39:29;101117.44;;;18.55;67.45
72465;BME280;60471;52.150;4.508;2023-07-13T02:41:59;101110.47;;;18.42;68.15
72465;BME280;60471;52.150;4.508;2023-07-13T02:44:26;101114.50;;;18.36;68.71
72465;BME280;60471;52.150;4.508;2023-07-13T02:46:53;101122.38;;;18.38;69.10
72465;BME280;60471;52.150;4.508;2023-07-13T02:49:19;101116.06;;;18.39;68.87
72465;BME280;60471;52.150;4.508;2023-07-13T02:51:46;101118.16;;;18.46;68.63
72465;BME280;60471;52.150;4.508;2023-07-13T02:54:12;101114.97;;;18.41;68.85
72465;BME280;60471;52.150;4.508;2023-07-13T02:56:40;101110.31;;;18.32;69.09
72465;BME280;60471;52.150;4.508;2023-07-13T02:59:07;101114.25;;;18.39;68.80
72465;BME280;60471;52.150;4.508;2023-07-13T03:01:33;101113.84;;;18.33;69.61
72465;BME280;60471;52.150;4.508;2023-07-13T03:04:01;101123.34;;;18.37;68.96
72465;BME280;60471;52.150;4.508;2023-07-13T03:06:28;101121.66;;;18.36;69.39
72465;BME280;60471;52.150;4.508;2023-07-13T03:08:56;101122.28;;;18.50;69.31
72465;BME280;60471;52.150;4.508;2023-07-13T03:11:22;101128.22;;;18.43;69.26
72465;BME280;60471;52.150;4.508;2023-07-13T03:13:49;101127.16;;;18.45;69.71
72465;BME280;60471;52.150;4.508;2023-07-13T03:16:15;101124.66;;;18.31;70.26
72465;BME280;60471;52.150;4.508;2023-07-13T03:18:42;101121.75;;;18.34;70.79
72465;BME280;60471;52.150;4.508;2023-07-13T03:21:10;101122.22;;;18.28;70.51
72465;BME280;60471;52.150;4.508;2023-07-13T03:23:36;101125.28;;;18.35;71.08
72465;BME280;60471;52.150;4.508;2023-07-13T03:26:12;101120.28;;;18.30;71.15
72465;BME280;60471;52.150;4.508;2023-07-13T03:28:44;101124.03;;;18.28;71.93
72465;BME280;60471;52.150;4.508;2023-07-13T03:31:14;101121.75;;;18.34;71.63
72465;BME280;60471;52.150;4.508;2023-07-13T03:33:42;101121.19;;;18.53;71.78
72465;BME280;60471;52.150;4.508;2023-07-13T03:36:14;101123.59;;;18.45;71.70
72465;BME280;60471;52.150;4.508;2023-07-13T03:38:49;101130.44;;;18.49;72.46
72465;BME280;60471;52.150;4.508;2023-07-13T03:41:18;101131.16;;;18.51;72.14
72465;BME280;60471;52.150;4.508;2023-07-13T03:43:46;101130.06;;;18.53;72.63
72465;BME280;60471;52.150;4.508;2023-07-13T03:46:16;101122.41;;;18.49;73.06
72465;BME280;60471;52.150;4.508;2023-07-13T03:48:44;101125.94;;;18.49;73.74
72465;BME280;60471;52.150;4.508;2023-07-13T03:51:14;101130.13;;;18.65;73.14
72465;BME280;60471;52.150;4.508;2023-07-13T03:53:43;101137.09;;;18.67;73.72
72465;BME280;60471;52.150;4.508;2023-07-13T03:56:11;101129.91;;;18.68;73.44
72465;BME280;60471;52.150;4.508;2023-07-13T03:58:39;101129.28;;;18.64;73.93
72465;BME280;60471;52.150;4.508;2023-07-13T04:01:09;101124.88;;;18.63;73.97
72465;BME280;60471;52.150;4.508;2023-07-13T04:03:37;101135.63;;;18.86;74.13
72465;BME280;60471;52.150;4.508;2023-07-13T04:06:06;101138.03;;;18.77;74.22
72465;BME280;60471;52.150;4.508;2023-07-13T04:08:35;101145.22;;;18.77;74.53
72465;BME280;60471;52.150;4.508;2023-07-13T04:11:03;101148.28;;;18.83;74.40
72465;BME280;60471;52.150;4.508;2023-07-13T04:13:30;101145.63;;;18.95;73.83
72465;BME280;60471;52.150;4.508;2023-07-13T04:15:57;101148.88;;;18.87;74.11
72465;BME280;60471;52.150;4.508;2023-07-13T04:18:23;101145.72;;;18.82;74.27
72465;BME280;60471;52.150;4.508;2023-07-13T04:20:50;101141.25;;;18.94;73.89
72465;BME280;60471;52.150;4.508;2023-07-13T04:23:17;101155.72;;;18.91;74.17
72465;BME280;60471;52.150;4.508;2023-07-13T04:25:48;101149.28;;;18.94;73.37
72465;BME280;60471;52.150;4.508;2023-07-13T04:28:21;101152.94;;;19.04;73.29
72465;BME280;60471;52.150;4.508;2023-07-13T04:30:49;101147.69;;;18.91;73.52
72465;BME280;60471;52.150;4.508;2023-07-13T04:33:16;101151.84;;;19.18;72.79
72465;BME280;60471;52.150;4.508;2023-07-13T04:35:43;101173.94;;;19.08;72.71
72465;BME280;60471;52.150;4.508;2023-07-13T04:38:12;101158.16;;;19.05;72.38
72465;BME280;60471;52.150;4.508;2023-07-13T04:40:38;101167.16;;;19.27;71.91
72465;BME280;60471;52.150;4.508;2023-07-13T04:43:05;101165.72;;;19.45;71.60
72465;BME280;60471;52.150;4.508;2023-07-13T04:45:31;101160.97;;;19.26;71.44
72465;BME280;60471;52.150;4.508;2023-07-13T04:47:57;101164.50;;;19.16;71.91
72465;BME280;60471;52.150;4.508;2023-07-13T04:50:24;101166.91;;;19.07;72.24
72465;BME280;60471;52.150;4.508;2023-07-13T04:52:50;101175.44;;;19.13;72.04
72465;BME280;60471;52.150;4.508;2023-07-13T04:55:18;101174.72;;;19.22;71.30
72465;BME280;60471;52.150;4.508;2023-07-13T04:57:45;101170.44;;;19.30;70.81
72465;BME280;60471;52.150;4.508;2023-07-13T05:00:14;101175.31;;;19.25;70.82
72465;BME280;60471;52.150;4.508;2023-07-13T05:02:44;101195.88;;;19.47;69.92
72465;BME280;60471;52.150;4.508;2023-07-13T05:05:11;101185.88;;;19.83;68.65
72465;BME280;60471;52.150;4.508;2023-07-13T05:07:38;101193.66;;;19.86;68.34
72465;BME280;60471;52.150;4.508;2023-07-13T05:10:05;101185.16;;;19.92;67.09
72465;BME280;60471;52.150;4.508;2023-07-13T05:12:31;101188.19;;;19.98;66.80
72465;BME280;60471;52.150;4.508;2023-07-13T05:14:58;101188.91;;;20.01;66.19
72465;BME280;60471;52.150;4.508;2023-07-13T05:17:24;101185.75;;;19.84;67.00
72465;BME280;60471;52.150;4.508;2023-07-13T05:19:51;101202.63;;;20.07;66.52
72465;BME280;60471;52.150;4.508;2023-07-13T05:22:17;101194.50;;;20.09;66.11
72465;BME280;60471;52.150;4.508;2023-07-13T05:24:43;101211.50;;;20.08;65.37
72465;BME280;60471;52.150;4.508;2023-07-13T05:27:09;101204.31;;;20.19;65.18
72465;BME280;60471;52.150;4.508;2023-07-13T05:29:36;101199.69;;;20.21;65.21
72465;BME280;60471;52.150;4.508;2023-07-13T05:32:03;101206.00;;;20.32;64.98
72465;BME280;60471;52.150;4.508;2023-07-13T05:34:29;101195.72;;;20.48;64.73
72465;BME280;60471;52.150;4.508;2023-07-13T05:36:55;101206.69;;;20.45;63.81
72465;BME280;60471;52.150;4.508;2023-07-13T05:39:22;101213.44;;;20.17;64.67
72465;BME280;60471;52.150;4.508;2023-07-13T05:41:48;101208.13;;;20.49;63.85
72465;BME280;60471;52.150;4.508;2023-07-13T05:44:15;101205.84;;;20.33;64.00
72465;BME280;60471;52.150;4.508;2023-07-13T05:46:41;101206.81;;;20.43;63.53
72465;BME280;60471;52.150;4.508;2023-07-13T05:49:07;101222.16;;;20.41;63.03
72465;BME280;60471;52.150;4.508;2023-07-13T05:51:34;101212.78;;;20.47;63.23
72465;BME280;60471;52.150;4.508;2023-07-13T05:54:00;101216.88;;;20.51;63.03
72465;BME280;60471;52.150;4.508;2023-07-13T05:56:26;101226.94;;;20.26;63.34
72465;BME280;60471;52.150;4.508;2023-07-13T05:58:52;101224.22;;;20.49;63.07
72465;BME280;60471;52.150;4.508;2023-07-13T06:01:19;101224.47;;;20.78;62.30
72465;BME280;60471;52.150;4.508;2023-07-13T06:03:46;101235.06;;;20.47;63.47
72465;BME280;60471;52.150;4.508;2023-07-13T06:06:13;101242.38;;;19.91;64.68
72465;BME280;60471;52.150;4.508;2023-07-13T06:08:41;101225.78;;;20.08;64.49
72465;BME280;60471;52.150;4.508;2023-07-13T06:11:20;101230.84;;;20.34;63.93
72465;BME280;60471;52.150;4.508;2023-07-13T06:13:48;101236.00;;;20.14;63.69
72465;BME280;60471;52.150;4.508;2023-07-13T06:16:16;101242.03;;;20.27;63.79
72465;BME280;60471;52.150;4.508;2023-07-13T06:18:43;101240.38;;;20.15;63.00
72465;BME280;60471;52.150;4.508;2023-07-13T06:21:20;101244.41;;;20.10;63.18
72465;BME280;60471;52.150;4.508;2023-07-13T06:23:50;101241.19;;;20.27;63.67
72465;BME280;60471;52.150;4.508;2023-07-13T06:26:18;101278.72;;;20.16;64.35
72465;BME280;60471;52.150;4.508;2023-07-13T06:28:46;101247.94;;;20.10;63.98
72465;BME280;60471;52.150;4.508;2023-07-13T06:31:14;101259.16;;;20.04;64.07
72465;BME280;60471;52.150;4.508;2023-07-13T06:33:41;101275.63;;;19.77;64.72
72465;BME280;60471;52.150;4.508;2023-07-13T06:36:08;101274.13;;;19.95;64.06
72465;BME280;60471;52.150;4.508;2023-07-13T06:38:35;101250.88;;;19.85;63.98
72465;BME280;60471;52.150;4.508;2023-07-13T06:41:04;101256.22;;;20.07;63.38
72465;BME280;60471;52.150;4.508;2023-07-13T06:43:31;101266.09;;;19.95;63.40
72465;BME280;60471;52.150;4.508;2023-07-13T06:45:57;101264.66;;;19.91;63.18
72465;BME280;60471;52.150;4.508;2023-07-13T06:48:24;101261.41;;;20.31;61.81
72465;BME280;60471;52.150;4.508;2023-07-13T06:50:51;101271.31;;;20.19;62.15
72465;BME280;60471;52.150;4.508;2023-07-13T06:53:18;101282.75;;;20.76;61.15
72465;BME280;60471;52.150;4.508;2023-07-13T06:55:45;101268.44;;;21.07;59.12
72465;BME280;60471;52.150;4.508;2023-07-13T06:58:12;101274.91;;;20.84;58.54
72465;BME280;60471;52.150;4.508;2023-07-13T07:00:39;101282.53;;;20.68;58.18
72465;BME280;60471;52.150;4.508;2023-07-13T07:03:06;101273.06;;;21.05;56.54
72465;BME280;60471;52.150;4.508;2023-07-13T07:05:32;101274.13;;;21.14;56.22
72465;BME280;60471;52.150;4.508;2023-07-13T07:07:59;101287.78;;;20.90;56.84
72465;BME280;60471;52.150;4.508;2023-07-13T07:10:26;101275.41;;;20.78;56.93
72465;BME280;60471;52.150;4.508;2023-07-13T07:12:55;101278.50;;;20.73;58.23
72465;BME280;60471;52.150;4.508;2023-07-13T07:15:21;101296.56;;;20.60;59.62
72465;BME280;60471;52.150;4.508;2023-07-13T07:17:47;101296.06;;;20.66;57.89
72465;BME280;60471;52.150;4.508;2023-07-13T07:20:13;101291.34;;;20.59;57.59
72465;BME280;60471;52.150;4.508;2023-07-13T07:22:40;101282.75;;;20.33;59.86
72465;BME280;60471;52.150;4.508;2023-07-13T07:25:06;101290.53;;;20.24;58.98
72465;BME280;60471;52.150;4.508;2023-07-13T07:27:33;101286.13;;;20.35;57.72
72465;BME280;60471;52.150;4.508;2023-07-13T07:30:00;101285.97;;;20.59;57.69
72465;BME280;60471;52.150;4.508;2023-07-13T07:32:29;101275.84;;;21.36;56.31
72465;BME280;60471;52.150;4.508;2023-07-13T07:34:57;101289.00;;;20.97;57.16
72465;BME280;60471;52.150;4.508;2023-07-13T07:37:24;101288.25;;;21.16;58.12
72465;BME280;60471;52.150;4.508;2023-07-13T07:39:51;101283.56;;;21.71;54.06
72465;BME280;60471;52.150;4.508;2023-07-13T07:42:17;101296.94;;;21.61;52.86
72465;BME280;60471;52.150;4.508;2023-07-13T07:44:43;101288.91;;;21.40;51.37
72465;BME280;60471;52.150;4.508;2023-07-13T07:47:10;101298.44;;;21.54;51.62
72465;BME280;60471;52.150;4.508;2023-07-13T07:49:36;101289.25;;;21.87;50.81
72465;BME280;60471;52.150;4.508;2023-07-13T07:52:04;101302.94;;;21.75;51.67
72465;BME280;60471;52.150;4.508;2023-07-13T07:54:31;101313.84;;;21.31;54.76
72465;BME280;60471;52.150;4.508;2023-07-13T07:56:57;101318.06;;;20.81;57.33
72465;BME280;60471;52.150;4.508;2023-07-13T07:59:23;101326.31;;;20.57;59.70
72465;BME280;60471;52.150;4.508;2023-07-13T08:01:49;101302.53;;;20.96;58.94
72465;BME280;60471;52.150;4.508;2023-07-13T08:04:16;101315.66;;;21.52;57.77
72465;BME280;60471;52.150;4.508;2023-07-13T08:06:45;101334.56;;;21.08;57.68
72465;BME280;60471;52.150;4.508;2023-07-13T08:09:11;101311.56;;;20.63;59.01
72465;BME280;60471;52.150;4.508;2023-07-13T08:11:38;101320.22;;;20.66;60.25
72465;BME280;60471;52.150;4.508;2023-07-13T08:14:04;101313.41;;;20.40;60.01
72465;BME280;60471;52.150;4.508;2023-07-13T08:16:31;101313.22;;;21.07;58.71
72465;BME280;60471;52.150;4.508;2023-07-13T08:18:58;101328.78;;;21.13;58.22
72465;BME280;60471;52.150;4.508;2023-07-13T08:21:25;101316.78;;;21.49;58.09
72465;BME280;60471;52.150;4.508;2023-07-13T08:23:52;101316.97;;;20.83;60.26
72465;BME280;60471;52.150;4.508;2023-07-13T08:26:18;101323.69;;;20.78;60.40
72465;BME280;60471;52.150;4.508;2023-07-13T08:28:44;101322.84;;;20.77;59.99
72465;BME280;60471;52.150;4.508;2023-07-13T08:31:11;101321.66;;;20.70;59.88
72465;BME280;60471;52.150;4.508;2023-07-13T08:33:37;101315.25;;;20.82;59.66
72465;BME280;60471;52.150;4.508;2023-07-13T08:36:04;101322.47;;;21.35;58.85
72465;BME280;60471;52.150;4.508;2023-07-13T08:38:31;101320.75;;;20.81;58.49
72465;BME280;60471;52.150;4.508;2023-07-13T08:40:58;101316.41;;;20.69;59.19
72465;BME280;60471;52.150;4.508;2023-07-13T08:43:34;101332.69;;;20.88;58.67
72465;BME280;60471;52.150;4.508;2023-07-13T08:46:26;101339.66;;;21.11;58.11
72465;BME280;60471;52.150;4.508;2023-07-13T08:49:14;101331.34;;;21.14;58.44
72465;BME280;60471;52.150;4.508;2023-07-13T08:51:51;101334.78;;;20.84;59.48
72465;BME280;60471;52.150;4.508;2023-07-13T08:54:26;101334.91;;;21.36;58.48
72465;BME280;60471;52.150;4.508;2023-07-13T08:56:56;101356.75;;;21.10;58.58
72465;BME280;60471;52.150;4.508;2023-07-13T08:59:28;101332.91;;;21.28;57.46
72465;BME280;60471;52.150;4.508;2023-07-13T09:04:49;101338.31;;;21.17;58.02
72465;BME280;60471;52.150;4.508;2023-07-13T09:12:51;101331.59;;;21.11;59.20
72465;BME280;60471;52.150;4.508;2023-07-13T09:15:31;101317.16;;;21.96;56.92
72465;BME280;60471;52.150;4.508;2023-07-13T09:18:10;101317.28;;;22.25;55.44
72465;BME280;60471;52.150;4.508;2023-07-13T09:20:46;101328.09;;;22.04;55.61
72465;BME280;60471;52.150;4.508;2023-07-13T09:23:21;101327.59;;;22.20;53.64
72465;BME280;60471;52.150;4.508;2023-07-13T09:25:52;101346.03;;;21.73;55.63
72465;BME280;60471;52.150;4.508;2023-07-13T09:28:29;101335.63;;;22.10;54.72
72465;BME280;60471;52.150;4.508;2023-07-13T09:33:45;101366.13;;;21.79;56.76
72465;BME280;60471;52.150;4.508;2023-07-13T09:36:32;101348.66;;;21.63;57.66
72465;BME280;60471;52.150;4.508;2023-07-13T09:42:27;101341.28;;;22.07;55.21
72465;BME280;60471;52.150;4.508;2023-07-13T09:44:56;101352.03;;;22.07;55.71
72465;BME280;60471;52.150;4.508;2023-07-13T09:47:27;101367.78;;;21.70;55.54
72465;BME280;60471;52.150;4.508;2023-07-13T09:50:04;101368.69;;;21.18;56.61
72465;BME280;60471;52.150;4.508;2023-07-13T09:52:47;101357.44;;;21.45;56.71
72465;BME280;60471;52.150;4.508;2023-07-13T09:55:25;101361.09;;;21.85;56.51
72465;BME280;60471;52.150;4.508;2023-07-13T09:57:57;101381.28;;;21.59;57.18
72465;BME280;60471;52.150;4.508;2023-07-13T10:00:29;101380.25;;;21.18;57.42
72465;BME280;60471;52.150;4.508;2023-07-13T10:03:38;101381.81;;;21.53;56.47
72465;BME280;60471;52.150;4.508;2023-07-13T10:05:50;101375.28;;;21.97;55.42
72465;BME280;60471;52.150;4.508;2023-07-13T10:08:25;101388.25;;;21.92;54.23
72465;BME280;60471;52.150;4.508;2023-07-13T10:10:59;101389.16;;;21.19;55.32
72465;BME280;60471;52.150;4.508;2023-07-13T10:13:48;101385.19;;;21.96;54.16
72465;BME280;60471;52.150;4.508;2023-07-13T10:16:19;101403.88;;;21.98;53.93
72465;BME280;60471;52.150;4.508;2023-07-13T10:18:49;101388.63;;;21.78;55.84
72465;BME280;60471;52.150;4.508;2023-07-13T10:21:52;101404.22;;;21.63;55.55
72465;BME280;60471;52.150;4.508;2023-07-13T10:24:25;101426.03;;;21.17;56.76
72465;BME280;60471;52.150;4.508;2023-07-13T10:27:03;101433.41;;;21.35;56.33
72465;BME280;60471;52.150;4.508;2023-07-13T10:30:00;101422.06;;;21.32;56.58
72465;BME280;60471;52.150;4.508;2023-07-13T10:33:15;101431.47;;;21.79;55.97
72465;BME280;60471;52.150;4.508;2023-07-13T10:35:43;101408.88;;;21.82;56.14
72465;BME280;60471;52.150;4.508;2023-07-13T10:38:20;101423.47;;;21.68;57.66
72465;BME280;60471;52.150;4.508;2023-07-13T10:41:22;101436.69;;;21.81;56.67
72465;BME280;60471;52.150;4.508;2023-07-13T10:43:55;101423.63;;;22.39;55.00
72465;BME280;60471;52.150;4.508;2023-07-13T10:46:27;101406.78;;;22.37;54.41
72465;BME280;60471;52.150;4.508;2023-07-13T10:49:01;101424.66;;;22.97;53.14
72465;BME280;60471;52.150;4.508;2023-07-13T10:51:31;101417.59;;;23.35;52.21
72465;BME280;60471;52.150;4.508;2023-07-13T10:59:38;101426.25;;;23.48;51.52
72465;BME280;60471;52.150;4.508;2023-07-13T11:02:14;101432.78;;;24.58;48.21
72465;BME280;60471;52.150;4.508;2023-07-13T11:04:54;101416.59;;;25.57;46.37
72465;BME280;60471;52.150;4.508;2023-07-13T11:07:29;101430.81;;;25.77;45.33
72465;BME280;60471;52.150;4.508;2023-07-13T11:09:59;101428.88;;;25.16;46.61
72465;BME280;60471;52.150;4.508;2023-07-13T11:12:52;101425.50;;;25.93;44.53
72465;BME280;60471;52.150;4.508;2023-07-13T11:15:31;101429.75;;;25.96;42.75
72465;BME280;60471;52.150;4.508;2023-07-13T11:18:20;101438.00;;;25.33;44.85
72465;BME280;60471;52.150;4.508;2023-07-13T11:20:48;101462.25;;;25.78;43.58
72465;BME280;60471;52.150;4.508;2023-07-13T11:25:42;101453.59;;;26.26;41.49
72465;BME280;60471;52.150;4.508;2023-07-13T11:30:41;101414.91;;;27.51;40.85
72465;BME280;60471;52.150;4.508;2023-07-13T11:35:53;101430.56;;;26.99;40.16
72465;BME280;60471;52.150;4.508;2023-07-13T11:38:36;101429.31;;;27.60;40.05
72465;BME280;60471;52.150;4.508;2023-07-13T11:41:23;101407.31;;;29.28;37.24
72465;BME280;60471;52.150;4.508;2023-07-13T11:43:54;101424.56;;;27.37;40.08
72465;BME280;60471;52.150;4.508;2023-07-13T11:46:28;101447.78;;;26.73;42.60
72465;BME280;60471;52.150;4.508;2023-07-13T11:48:55;101429.25;;;26.26;44.77
72465;BME280;60471;52.150;4.508;2023-07-13T11:51:30;101430.63;;;26.30;43.00
72465;BME280;60471;52.150;4.508;2023-07-13T11:54:03;101440.16;;;25.65;44.29
72465;BME280;60471;52.150;4.508;2023-07-13T11:56:36;101465.09;;;24.96;46.43
72465;BME280;60471;52.150;4.508;2023-07-13T11:59:06;101447.38;;;24.28;47.99
72465;BME280;60471;52.150;4.508;2023-07-13T12:01:42;101439.16;;;25.12;47.61
72465;BME280;60471;52.150;4.508;2023-07-13T12:04:25;101434.22;;;26.05;43.38
72465;BME280;60471;52.150;4.508;2023-07-13T12:07:03;101440.94;;;25.75;43.54
72465;BME280;60471;52.150;4.508;2023-07-13T12:09:30;101446.69;;;26.58;40.54
72465;BME280;60471;52.150;4.508;2023-07-13T12:11:57;101437.44;;;26.09;41.65
72465;BME280;60471;52.150;4.508;2023-07-13T12:14:27;101446.84;;;25.96;42.43
72465;BME280;60471;52.150;4.508;2023-07-13T12:16:54;101457.16;;;25.22;44.32
72465;BME280;60471;52.150;4.508;2023-07-13T12:19:25;101466.06;;;26.79;40.65
72465;BME280;60471;52.150;4.508;2023-07-13T12:21:58;101476.28;;;25.64;42.67
72465;BME280;60471;52.150;4.508;2023-07-13T12:24:25;101473.16;;;26.38;41.49
72465;BME280;60471;52.150;4.508;2023-07-13T12:26:59;101432.06;;;25.91;42.72
72465;BME280;60471;52.150;4.508;2023-07-13T12:29:38;101451.97;;;25.46;42.75
72465;BME280;60471;52.150;4.508;2023-07-13T12:32:08;101457.97;;;26.19;42.62
72465;BME280;60471;52.150;4.508;2023-07-13T12:35:14;101463.59;;;26.00;42.35
72465;BME280;60471;52.150;4.508;2023-07-13T12:37:43;101437.69;;;27.00;41.16
72465;BME280;60471;52.150;4.508;2023-07-13T12:40:17;101446.88;;;27.23;38.48
72465;BME280;60471;52.150;4.508;2023-07-13T12:42:49;101459.41;;;27.08;38.53
72465;BME280;60471;52.150;4.508;2023-07-13T12:45:35;101431.03;;;25.84;41.47
72465;BME280;60471;52.150;4.508;2023-07-13T12:48:20;101431.03;;;25.66;42.30
72465;BME280;60471;52.150;4.508;2023-07-13T12:50:48;101438.06;;;27.05;39.61
72465;BME280;60471;52.150;4.508;2023-07-13T12:53:20;101445.75;;;27.83;37.43
72465;BME280;60471;52.150;4.508;2023-07-13T12:55:59;101438.09;;;27.54;37.74
72465;BME280;60471;52.150;4.508;2023-07-13T12:58:40;101459.31;;;27.58;37.53
72465;BME280;60471;52.150;4.508;2023-07-13T13:01:10;101443.88;;;27.83;38.49
72465;BME280;60471;52.150;4.508;2023-07-13T13:03:44;101449.59;;;29.07;36.29
72465;BME280;60471;52.150;4.508;2023-07-13T13:08:42;101450.63;;;30.42;35.17
72465;BME280;60471;52.150;4.508;2023-07-13T13:11:09;101454.94;;;29.47;35.63
72465;BME280;60471;52.150;4.508;2023-07-13T13:13:36;101447.94;;;29.52;35.63
72465;BME280;60471;52.150;4.508;2023-07-13T13:16:17;101462.47;;;28.74;37.72
72465;BME280;60471;52.150;4.508;2023-07-13T13:18:51;101459.00;;;29.51;36.77
72465;BME280;60471;52.150;4.508;2023-07-13T13:21:19;101493.59;;;29.11;35.96
72465;BME280;60471;52.150;4.508;2023-07-13T13:23:46;101465.38;;;28.17;37.42
72465;BME280;60471;52.150;4.508;2023-07-13T13:26:14;101464.69;;;27.34;40.61
72465;BME280;60471;52.150;4.508;2023-07-13T13:28:46;101464.03;;;27.89;38.25
72465;BME280;60471;52.150;4.508;2023-07-13T13:31:16;101456.88;;;28.28;38.03
72465;BME280;60471;52.150;4.508;2023-07-13T13:33:47;101472.19;;;27.48;39.84
72465;BME280;60471;52.150;4.508;2023-07-13T13:36:19;101473.72;;;27.91;38.42
72465;BME280;60471;52.150;4.508;2023-07-13T13:38:49;101458.97;;;27.94;39.07